createdAt,value
2023-03-11T00:00:33.095Z,20.53
2023-03-11T00:03:00.861Z,20.52
2023-03-11T00:05:29.505Z,20.51
2023-03-11T00:07:56.549Z,20.50
2023-03-11T00:10:27.395Z,20.48
2023-03-11T00:12:55.155Z,20.48
2023-03-11T00:15:21.789Z,20.48
2023-03-11T00:17:48.844Z,20.47
2023-03-11T00:20:23.910Z,20.46
2023-03-11T00:22:51.308Z,20.45
2023-03-11T00:25:18.245Z,20.43
2023-03-11T00:27:44.933Z,20.43
2023-03-11T00:30:12.471Z,20.42
2023-03-11T00:32:39.181Z,20.42
2023-03-11T00:35:11.378Z,20.39
2023-03-11T00:37:37.955Z,20.40
2023-03-11T00:40:08.842Z,20.37
2023-03-11T00:42:35.485Z,20.38
2023-03-11T00:45:02.080Z,20.37
2023-03-11T00:47:28.691Z,20.36
2023-03-11T00:49:55.417Z,20.36
2023-03-11T00:52:22.207Z,20.36
2023-03-11T00:54:48.818Z,20.36
2023-03-11T00:57:15.401Z,20.36
2023-03-11T00:59:44.210Z,20.35
2023-03-11T01:02:10.849Z,20.34
2023-03-11T01:04:37.535Z,20.35
2023-03-11T01:07:04.170Z,20.32
2023-03-11T01:09:30.750Z,20.30
2023-03-11T01:11:57.315Z,20.29
2023-03-11T01:14:23.943Z,20.28
2023-03-11T01:16:50.680Z,20.26
2023-03-11T01:19:17.352Z,20.24
2023-03-11T01:21:43.975Z,20.25
2023-03-11T01:24:10.649Z,20.23
2023-03-11T01:26:37.298Z,20.23
2023-03-11T01:29:04.051Z,20.22
2023-03-11T01:31:33.826Z,20.22
2023-03-11T01:34:00.431Z,20.21
2023-03-11T01:36:27.156Z,20.20
2023-03-11T01:38:53.753Z,20.20
2023-03-11T01:41:20.412Z,20.18
2023-03-11T01:43:49.534Z,20.16
2023-03-11T01:46:21.246Z,20.16
2023-03-11T01:48:49.993Z,20.17
2023-03-11T01:51:43.087Z,20.14
2023-03-11T01:54:12.107Z,20.13
2023-03-11T01:56:39.535Z,20.12
2023-03-11T01:59:06.954Z,20.13
2023-03-11T02:01:33.688Z,20.13
2023-03-11T02:04:00.318Z,20.11
2023-03-11T02:06:26.906Z,20.12
2023-03-11T02:08:53.516Z,20.10
2023-03-11T02:11:24.008Z,20.09
2023-03-11T02:13:50.677Z,20.08
2023-03-11T02:16:17.562Z,20.08
2023-03-11T02:18:44.265Z,20.09
2023-03-11T02:21:30.307Z,20.08
2023-03-11T02:24:01.912Z,20.07
2023-03-11T02:27:01.555Z,20.07
2023-03-11T02:29:28.423Z,20.07
2023-03-11T02:31:58.428Z,20.08
2023-03-11T02:34:27.830Z,20.07
2023-03-11T02:36:54.469Z,20.06
2023-03-11T02:39:37.956Z,20.08
2023-03-11T02:42:11.295Z,20.09
2023-03-11T02:44:38.034Z,20.08
2023-03-11T02:47:04.856Z,20.06
2023-03-11T02:49:31.499Z,20.05
2023-03-11T02:51:58.105Z,20.05
2023-03-11T02:54:24.710Z,20.05
2023-03-11T02:56:51.382Z,20.08
2023-03-11T02:59:17.966Z,20.07
2023-03-11T03:01:44.554Z,20.07
2023-03-11T03:04:11.253Z,20.03
2023-03-11T03:06:37.840Z,20.01
2023-03-11T03:09:07.461Z,20.00
2023-03-11T03:11:34.060Z,20.00
2023-03-11T03:14:00.656Z,20.00
2023-03-11T03:16:27.456Z,19.99
2023-03-11T03:18:54.273Z,20.01
2023-03-11T03:21:20.842Z,20.01
2023-03-11T03:23:47.425Z,20.00
2023-03-11T03:26:14.219Z,19.99
2023-03-11T03:28:40.975Z,19.99
2023-03-11T03:31:08.207Z,19.99
2023-03-11T03:33:34.987Z,20.00
2023-03-11T03:36:01.633Z,20.00
2023-03-11T03:38:28.290Z,19.99
2023-03-11T03:40:54.918Z,19.98
2023-03-11T03:43:21.754Z,19.98
2023-03-11T03:46:02.052Z,19.98
2023-03-11T03:48:28.948Z,19.98
2023-03-11T03:50:55.763Z,19.99
2023-03-11T03:53:22.419Z,19.99
2023-03-11T03:55:50.898Z,20.00
2023-03-11T03:58:17.524Z,20.00
2023-03-11T04:00:44.185Z,20.04
2023-03-11T04:03:10.820Z,20.16
2023-03-11T04:05:37.432Z,20.28
2023-03-11T04:08:04.304Z,20.43
2023-03-11T04:10:31.013Z,20.58
2023-03-11T04:12:57.741Z,20.76
2023-03-11T04:15:24.380Z,20.94
2023-03-11T04:17:51.045Z,21.20
2023-03-11T04:20:17.890Z,21.46
2023-03-11T04:22:44.804Z,21.66
2023-03-11T04:25:11.384Z,21.80
2023-03-11T04:27:38.603Z,21.90
2023-03-11T04:30:05.787Z,22.00
2023-03-11T04:32:32.474Z,22.07
2023-03-11T04:34:59.124Z,22.14
2023-03-11T04:37:29.135Z,22.20
2023-03-11T04:39:55.850Z,22.25
2023-03-11T04:42:22.551Z,22.30
2023-03-11T04:44:49.358Z,22.33
2023-03-11T04:47:16.072Z,22.34
2023-03-11T04:49:42.687Z,22.36
2023-03-11T04:52:09.304Z,22.37
2023-03-11T04:54:35.879Z,22.38
2023-03-11T04:57:02.449Z,22.39
2023-03-11T04:59:29.061Z,22.40
2023-03-11T05:01:55.802Z,22.42
2023-03-11T05:04:22.413Z,22.42
2023-03-11T05:06:51.255Z,22.44
2023-03-11T05:09:17.919Z,22.45
2023-03-11T05:11:44.554Z,22.45
2023-03-11T05:14:11.131Z,22.46
2023-03-11T05:16:37.769Z,22.47
2023-03-11T05:19:24.357Z,22.49
2023-03-11T05:21:51.216Z,22.49
2023-03-11T05:24:17.794Z,22.51
2023-03-11T05:26:45.830Z,22.52
2023-03-11T05:29:13.361Z,22.53
2023-03-11T05:31:39.976Z,22.54
2023-03-11T05:34:06.596Z,22.55
2023-03-11T05:36:33.358Z,22.56
2023-03-11T05:38:59.993Z,22.58
2023-03-11T05:41:26.590Z,22.57
2023-03-11T05:43:53.192Z,22.59
2023-03-11T05:46:20.686Z,22.59
2023-03-11T05:48:47.299Z,22.60
2023-03-11T05:51:13.977Z,22.60
2023-03-11T05:53:48.265Z,22.62
2023-03-11T05:56:15.759Z,22.63
2023-03-11T05:58:42.386Z,22.64
2023-03-11T06:01:13.168Z,22.65
2023-03-11T06:03:40.260Z,22.66
2023-03-11T06:06:07.972Z,22.64
2023-03-11T06:08:35.568Z,22.67
2023-03-11T06:11:02.977Z,22.67
2023-03-11T06:13:31.866Z,22.67
2023-03-11T06:15:58.488Z,22.68
2023-03-11T06:18:26.742Z,22.70
2023-03-11T06:20:54.259Z,22.70
2023-03-11T06:23:21.082Z,22.70
2023-03-11T06:26:05.972Z,22.71
2023-03-11T06:28:32.733Z,22.72
2023-03-11T06:31:14.577Z,22.73
2023-03-11T06:33:41.236Z,22.75
2023-03-11T06:36:08.353Z,22.79
2023-03-11T06:38:37.295Z,22.82
2023-03-11T06:41:06.980Z,22.85
2023-03-11T06:43:34.178Z,22.87
2023-03-11T06:46:01.538Z,22.89
2023-03-11T06:48:28.533Z,22.89
2023-03-11T06:50:58.855Z,22.91
2023-03-11T06:53:25.727Z,22.93
2023-03-11T06:56:06.605Z,22.93
2023-03-11T06:58:33.487Z,22.95
2023-03-11T07:01:04.158Z,22.96
2023-03-11T07:03:30.928Z,22.99
2023-03-11T07:05:59.867Z,23.00
2023-03-11T07:08:26.668Z,23.00
2023-03-11T07:11:10.492Z,23.03
2023-03-11T07:13:37.165Z,23.05
2023-03-11T07:16:05.424Z,23.08
2023-03-11T07:18:32.436Z,23.10
2023-03-11T07:20:59.041Z,23.11
2023-03-11T07:23:25.637Z,23.10
2023-03-11T07:25:52.982Z,23.10
2023-03-11T07:28:20.178Z,23.12
2023-03-11T07:30:48.632Z,23.12
2023-03-11T07:33:15.326Z,23.12
2023-03-11T07:35:42.034Z,23.12
2023-03-11T07:38:08.761Z,23.12
2023-03-11T07:40:35.355Z,23.13
2023-03-11T07:43:02.006Z,23.15
2023-03-11T07:45:28.640Z,23.14
2023-03-11T07:47:55.347Z,23.16
2023-03-11T07:50:24.717Z,23.18
2023-03-11T07:52:51.307Z,23.18
2023-03-11T07:55:17.990Z,23.19
2023-03-11T07:57:47.435Z,23.22
2023-03-11T08:00:15.609Z,23.21
2023-03-11T08:02:42.527Z,23.22
2023-03-11T08:05:09.590Z,23.23
2023-03-11T08:07:36.148Z,23.23
2023-03-11T08:10:02.985Z,23.24
2023-03-11T08:12:29.675Z,23.26
2023-03-11T08:14:56.339Z,23.25
2023-03-11T08:17:23.098Z,23.28
2023-03-11T08:19:49.872Z,23.32
2023-03-11T08:22:16.483Z,23.36
2023-03-11T08:24:43.148Z,23.39
2023-03-11T08:27:09.848Z,23.42
2023-03-11T08:29:36.499Z,23.44
2023-03-11T08:32:03.462Z,23.45
2023-03-11T08:34:30.083Z,23.51
2023-03-11T08:36:56.933Z,23.55
2023-03-11T08:39:24.259Z,23.55
2023-03-11T08:41:51.076Z,23.55
2023-03-11T08:44:17.639Z,23.57
2023-03-11T08:46:48.865Z,23.60
2023-03-11T08:49:17.781Z,23.63
2023-03-11T08:51:44.378Z,23.67
2023-03-11T08:54:11.054Z,23.70
2023-03-11T08:56:37.648Z,23.71
2023-03-11T08:59:04.280Z,23.75
2023-03-11T09:01:30.902Z,23.76
2023-03-11T09:03:57.604Z,23.73
2023-03-11T09:06:24.524Z,23.72
2023-03-11T09:08:51.222Z,23.67
2023-03-11T09:11:18.053Z,23.61
2023-03-11T09:13:44.790Z,23.56
2023-03-11T09:16:15.882Z,23.49
2023-03-11T09:18:42.603Z,23.40
2023-03-11T09:21:11.918Z,23.32
2023-03-11T09:23:38.865Z,23.24
2023-03-11T09:26:05.502Z,23.17
2023-03-11T09:28:32.181Z,23.08
2023-03-11T09:30:58.772Z,23.02
2023-03-11T09:33:25.340Z,22.92
2023-03-11T09:35:51.974Z,22.84
2023-03-11T09:38:19.634Z,22.79
2023-03-11T09:40:55.191Z,22.71
2023-03-11T09:43:40.105Z,22.65
2023-03-11T09:46:22.188Z,22.58
2023-03-11T09:48:55.744Z,22.52
2023-03-11T09:51:25.980Z,22.45
2023-03-11T09:54:04.767Z,22.42
2023-03-11T09:56:31.467Z,22.36
2023-03-11T09:59:19.116Z,22.30
2023-03-11T10:01:46.177Z,22.25
2023-03-11T10:04:18.873Z,22.23
2023-03-11T10:06:46.737Z,22.18
2023-03-11T10:09:39.567Z,22.14
2023-03-11T10:12:15.380Z,22.11
2023-03-11T10:14:49.011Z,22.06
2023-03-11T10:17:35.014Z,22.02
2023-03-11T10:20:22.108Z,21.99
2023-03-11T10:22:51.780Z,21.95
2023-03-11T10:25:28.830Z,21.92
2023-03-11T10:27:57.987Z,21.88
2023-03-11T10:30:36.814Z,21.85
2023-03-11T10:33:07.701Z,21.83
2023-03-11T10:35:41.655Z,21.80
2023-03-11T10:38:16.054Z,21.78
2023-03-11T10:40:44.462Z,21.75
2023-03-11T10:43:47.983Z,21.73
2023-03-11T10:46:25.413Z,21.69
2023-03-11T10:48:52.008Z,21.67
2023-03-11T10:51:22.678Z,21.65
2023-03-11T10:53:56.117Z,21.64
2023-03-11T10:56:35.619Z,21.64
2023-03-11T10:59:02.822Z,21.63
2023-03-11T11:01:29.725Z,21.63
2023-03-11T11:03:58.106Z,21.62
2023-03-11T11:06:37.535Z,21.62
2023-03-11T11:09:21.890Z,21.61
2023-03-11T11:12:02.166Z,21.60
2023-03-11T11:15:01.343Z,21.59
2023-03-11T11:17:30.781Z,21.57
2023-03-11T11:19:58.161Z,21.55
2023-03-11T11:22:24.956Z,21.52
2023-03-11T11:24:53.839Z,21.50
2023-03-11T11:27:22.435Z,21.46
2023-03-11T11:30:04.450Z,21.42
2023-03-11T11:32:31.143Z,21.42
2023-03-11T11:35:01.322Z,21.38
2023-03-11T11:37:32.081Z,21.37
2023-03-11T11:40:12.717Z,21.33
2023-03-11T11:42:40.236Z,21.31
2023-03-11T11:45:22.264Z,21.29
2023-03-11T11:47:49.838Z,21.27
2023-03-11T11:50:42.074Z,21.25
2023-03-11T11:53:39.965Z,21.24
2023-03-11T11:56:06.627Z,21.21
2023-03-11T11:58:33.238Z,21.19
2023-03-11T12:01:24.914Z,21.17
2023-03-11T12:04:03.846Z,21.15
2023-03-11T12:06:37.884Z,21.14
2023-03-11T12:09:24.326Z,21.13
2023-03-11T12:12:13.037Z,21.12
2023-03-11T12:14:55.508Z,21.11
2023-03-11T12:17:23.557Z,21.09
2023-03-11T12:20:03.759Z,21.07
2023-03-11T12:22:57.728Z,21.06
2023-03-11T12:25:30.230Z,21.05
2023-03-11T12:28:24.981Z,21.05
2023-03-11T12:30:56.635Z,21.03
2023-03-11T12:33:32.535Z,21.02
2023-03-11T12:35:58.980Z,21.01
2023-03-11T12:38:31.221Z,21.00
2023-03-11T12:41:13.649Z,21.00
2023-03-11T12:43:40.229Z,21.00
2023-03-11T12:46:10.714Z,20.99
2023-03-11T12:48:45.939Z,20.97
2023-03-11T12:51:39.188Z,20.95
2023-03-11T12:54:34.213Z,20.93
2023-03-11T12:57:05.875Z,20.91
2023-03-11T12:59:51.000Z,20.90
2023-03-11T13:02:53.043Z,20.89
2023-03-11T13:05:41.219Z,20.88
2023-03-11T13:08:23.501Z,20.87
2023-03-11T13:10:53.258Z,20.86
2023-03-11T13:13:38.737Z,20.84
2023-03-11T13:16:14.694Z,20.83
2023-03-11T13:18:42.300Z,20.83
2023-03-11T13:21:27.335Z,20.81
2023-03-11T13:24:19.056Z,20.79
2023-03-11T13:27:08.878Z,20.78
2023-03-11T13:29:57.243Z,20.78
2023-03-11T13:32:48.632Z,20.77
2023-03-11T13:35:20.861Z,20.75
2023-03-11T13:38:12.418Z,20.75
2023-03-11T13:40:40.457Z,20.73
2023-03-11T13:43:13.331Z,20.72
2023-03-11T13:45:40.077Z,20.71
2023-03-11T13:48:42.139Z,20.70
2023-03-11T13:51:16.080Z,20.70
2023-03-11T13:53:45.095Z,20.69
2023-03-11T13:56:22.678Z,20.68
2023-03-11T13:58:49.252Z,20.66
2023-03-11T14:01:16.773Z,20.66
2023-03-11T14:03:44.158Z,20.64
2023-03-11T14:06:19.785Z,20.65
2023-03-11T14:08:57.676Z,20.64
2023-03-11T14:11:29.196Z,20.63
2023-03-11T14:13:55.841Z,20.62
2023-03-11T14:16:43.873Z,20.61
2023-03-11T14:19:17.774Z,20.60
2023-03-11T14:21:45.209Z,20.58
2023-03-11T14:24:19.776Z,20.58
2023-03-11T14:26:48.647Z,20.58
2023-03-11T14:29:19.805Z,20.53
2023-03-11T14:31:46.729Z,20.52
2023-03-11T14:34:21.260Z,20.49
2023-03-11T14:36:50.957Z,20.47
2023-03-11T14:39:23.569Z,20.45
2023-03-11T14:41:50.769Z,20.46
2023-03-11T14:44:17.442Z,20.43
2023-03-11T14:46:45.354Z,20.43
2023-03-11T14:49:15.997Z,20.42
2023-03-11T14:51:42.608Z,20.42
2023-03-11T14:54:18.993Z,20.41
2023-03-11T14:56:49.757Z,20.40
2023-03-11T14:59:23.383Z,20.39
2023-03-11T15:01:50.022Z,20.39
2023-03-11T15:04:22.889Z,20.39
2023-03-11T15:06:49.748Z,20.39
2023-03-11T15:09:18.418Z,20.36
2023-03-11T15:11:48.939Z,20.37
2023-03-11T15:14:26.509Z,20.34
2023-03-11T15:16:53.907Z,20.34
2023-03-11T15:19:21.508Z,20.35
2023-03-11T15:21:48.433Z,20.34
2023-03-11T15:24:19.762Z,20.33
2023-03-11T15:26:56.794Z,20.34
2023-03-11T15:29:23.497Z,20.32
2023-03-11T15:31:50.335Z,20.31
2023-03-11T15:34:16.867Z,20.32
2023-03-11T15:36:49.631Z,20.30
2023-03-11T15:39:32.282Z,20.31
2023-03-11T15:42:07.944Z,20.29
2023-03-11T15:44:53.683Z,20.29
2023-03-11T15:47:22.190Z,20.28
2023-03-11T15:49:48.949Z,20.24
2023-03-11T15:52:15.954Z,20.21
2023-03-11T15:54:47.387Z,20.18
2023-03-11T15:57:24.152Z,20.14
2023-03-11T15:59:51.245Z,20.15
2023-03-11T16:02:22.510Z,20.15
2023-03-11T16:04:49.289Z,20.15
2023-03-11T16:07:17.113Z,20.13
2023-03-11T16:09:43.773Z,20.16
2023-03-11T16:12:14.876Z,20.16
2023-03-11T16:14:41.518Z,20.14
2023-03-11T16:17:08.093Z,20.13
2023-03-11T16:19:34.702Z,20.14
2023-03-11T16:22:01.302Z,20.13
2023-03-11T16:24:27.923Z,20.10
2023-03-11T16:26:54.592Z,20.09
2023-03-11T16:29:23.227Z,20.06
2023-03-11T16:31:49.855Z,20.05
2023-03-11T16:34:16.468Z,20.07
2023-03-11T16:36:43.069Z,20.03
2023-03-11T16:39:09.665Z,20.01
2023-03-11T16:41:59.264Z,20.01
2023-03-11T16:44:26.219Z,19.98
2023-03-11T16:46:52.995Z,19.95
2023-03-11T16:49:19.750Z,19.94
2023-03-11T16:51:46.373Z,19.94
2023-03-11T16:54:13.072Z,19.92
2023-03-11T16:56:41.754Z,19.91
2023-03-11T16:59:08.504Z,19.91
2023-03-11T17:01:38.521Z,19.87
2023-03-11T17:04:08.078Z,19.87
2023-03-11T17:06:34.760Z,19.86
2023-03-11T17:09:01.413Z,19.85
2023-03-11T17:11:29.615Z,19.83
2023-03-11T17:14:03.278Z,19.83
2023-03-11T17:16:40.434Z,19.81
2023-03-11T17:19:07.086Z,19.79
2023-03-11T17:21:33.679Z,19.77
2023-03-11T17:24:00.354Z,19.74
2023-03-11T17:26:27.886Z,19.74
2023-03-11T17:28:54.479Z,19.73
2023-03-11T17:31:21.120Z,19.74
2023-03-11T17:33:47.807Z,19.73
2023-03-11T17:36:16.113Z,19.71
2023-03-11T17:38:46.257Z,19.69
2023-03-11T17:41:14.622Z,19.68
2023-03-11T17:43:41.536Z,19.67
2023-03-11T17:46:10.947Z,19.64
2023-03-11T17:48:38.111Z,19.62
2023-03-11T17:51:06.776Z,19.61
2023-03-11T17:53:33.478Z,19.59
2023-03-11T17:56:00.203Z,19.58
2023-03-11T17:58:26.888Z,19.58
2023-03-11T18:00:53.487Z,19.59
2023-03-11T18:03:20.116Z,19.57
2023-03-11T18:05:57.823Z,19.56
2023-03-11T18:08:24.591Z,19.53
2023-03-11T18:10:52.056Z,19.50
2023-03-11T18:13:18.926Z,19.49
2023-03-11T18:15:45.594Z,19.47
2023-03-11T18:18:12.262Z,19.48
2023-03-11T18:20:39.060Z,19.47
2023-03-11T18:23:05.867Z,19.50
2023-03-11T18:25:32.541Z,19.56
2023-03-11T18:27:59.137Z,19.68
2023-03-11T18:30:25.792Z,19.87
2023-03-11T18:32:52.439Z,20.04
2023-03-11T18:35:19.181Z,20.21
2023-03-11T18:37:46.659Z,20.39
2023-03-11T18:40:13.663Z,20.62
2023-03-11T18:42:40.446Z,20.86
2023-03-11T18:45:07.633Z,21.00
2023-03-11T18:47:35.499Z,21.14
2023-03-11T18:50:02.319Z,21.26
2023-03-11T18:52:29.191Z,21.37
2023-03-11T18:54:55.793Z,21.44
2023-03-11T18:57:22.384Z,21.48
2023-03-11T18:59:50.962Z,21.52
2023-03-11T19:02:17.840Z,21.54
2023-03-11T19:04:44.501Z,21.54
2023-03-11T19:07:11.176Z,21.56
2023-03-11T19:09:37.781Z,21.56
2023-03-11T19:12:04.463Z,21.58
2023-03-11T19:14:31.062Z,21.57
2023-03-11T19:16:57.742Z,21.58
2023-03-11T19:19:24.350Z,21.57
2023-03-11T19:21:51.088Z,21.59
2023-03-11T19:24:17.660Z,21.58
2023-03-11T19:26:46.122Z,21.59
2023-03-11T19:29:14.021Z,21.60
2023-03-11T19:31:40.734Z,21.59
2023-03-11T19:34:07.340Z,21.60
2023-03-11T19:36:34.040Z,21.60
2023-03-11T19:39:00.656Z,21.62
2023-03-11T19:41:27.363Z,21.61
2023-03-11T19:43:54.026Z,21.63
2023-03-11T19:46:22.649Z,21.65
2023-03-11T19:48:49.275Z,21.69
2023-03-11T19:51:17.285Z,21.72
2023-03-11T19:53:44.096Z,21.77
2023-03-11T19:56:10.797Z,21.82
2023-03-11T19:58:37.630Z,21.87
2023-03-11T20:01:04.439Z,21.89
2023-03-11T20:03:31.234Z,21.91
2023-03-11T20:06:03.947Z,21.92
2023-03-11T20:08:30.631Z,21.91
2023-03-11T20:11:00.372Z,21.90
2023-03-11T20:13:27.045Z,21.90
2023-03-11T20:15:53.786Z,21.89
2023-03-11T20:18:20.519Z,21.90
2023-03-11T20:20:47.181Z,21.90
2023-03-11T20:23:13.876Z,21.90
2023-03-11T20:25:40.881Z,21.90
2023-03-11T20:28:07.699Z,21.89
2023-03-11T20:30:34.262Z,21.90
2023-03-11T20:33:01.044Z,21.90
2023-03-11T20:35:27.690Z,21.91
2023-03-11T20:37:54.505Z,21.90
2023-03-11T20:40:21.233Z,21.90
2023-03-11T20:42:47.930Z,21.90
2023-03-11T20:45:16.239Z,21.91
2023-03-11T20:47:44.248Z,21.91
2023-03-11T20:50:12.384Z,21.90
2023-03-11T20:52:39.139Z,21.89
2023-03-11T20:55:08.336Z,21.91
2023-03-11T20:57:35.184Z,21.92
2023-03-11T21:00:01.837Z,21.90
2023-03-11T21:02:30.947Z,21.90
2023-03-11T21:04:57.573Z,21.91
2023-03-11T21:07:24.490Z,21.91
2023-03-11T21:09:54.658Z,21.92
2023-03-11T21:12:21.886Z,21.92
2023-03-11T21:14:48.690Z,21.92
2023-03-11T21:17:17.421Z,21.93
2023-03-11T21:19:44.277Z,21.94
2023-03-11T21:22:11.394Z,21.95
2023-03-11T21:24:38.123Z,21.97
2023-03-11T21:27:04.993Z,21.98
2023-03-11T21:29:31.843Z,21.99
2023-03-11T21:31:58.689Z,22.01
2023-03-11T21:34:25.460Z,22.01
2023-03-11T21:36:52.072Z,22.03
2023-03-11T21:39:20.546Z,22.03
2023-03-11T21:41:47.179Z,22.04
2023-03-11T21:44:13.861Z,22.04
2023-03-11T21:46:40.702Z,22.06
2023-03-11T21:49:07.412Z,22.06
2023-03-11T21:51:35.862Z,22.06
2023-03-11T21:54:03.738Z,22.07
2023-03-11T21:56:30.431Z,22.08
2023-03-11T21:58:57.220Z,22.08
2023-03-11T22:01:23.911Z,22.08
2023-03-11T22:03:50.782Z,22.09
2023-03-11T22:06:17.598Z,22.09
2023-03-11T22:08:44.295Z,22.10
2023-03-11T22:11:13.915Z,22.09
2023-03-11T22:13:40.677Z,22.10
2023-03-11T22:16:07.896Z,22.11
2023-03-11T22:18:34.730Z,22.10
2023-03-11T22:21:01.554Z,22.11
2023-03-11T22:23:28.393Z,22.11
2023-03-11T22:25:55.047Z,22.11
2023-03-11T22:28:21.788Z,22.11
2023-03-11T22:30:48.540Z,22.11
2023-03-11T22:33:15.195Z,22.12
2023-03-11T22:35:42.251Z,22.15
2023-03-11T22:38:09.008Z,22.13
2023-03-11T22:40:35.731Z,22.13
2023-03-11T22:43:02.370Z,22.15
2023-03-11T22:45:29.129Z,22.14
2023-03-11T22:47:55.709Z,22.14
2023-03-11T22:50:22.362Z,22.14
2023-03-11T22:52:48.920Z,22.15
2023-03-11T22:55:15.596Z,22.15
2023-03-11T22:57:42.198Z,22.15
2023-03-11T23:00:20.852Z,22.15
2023-03-11T23:02:48.359Z,22.17
2023-03-11T23:05:15.332Z,22.16
2023-03-11T23:07:42.066Z,22.16
2023-03-11T23:10:09.536Z,22.17
2023-03-11T23:12:36.380Z,22.17
2023-03-11T23:15:04.553Z,22.17
2023-03-11T23:17:33.756Z,22.19
2023-03-11T23:20:00.435Z,22.17
2023-03-11T23:22:27.197Z,22.16
2023-03-11T23:24:53.823Z,22.17
2023-03-11T23:27:20.453Z,22.16
2023-03-11T23:29:47.933Z,22.17
2023-03-11T23:32:14.579Z,22.18
2023-03-11T23:34:41.421Z,22.18
2023-03-11T23:37:08.064Z,22.18
2023-03-11T23:39:35.000Z,22.18
2023-03-11T23:42:04.895Z,22.18
2023-03-11T23:44:35.791Z,22.19
2023-03-11T23:47:02.432Z,22.16
2023-03-11T23:49:29.008Z,22.18
2023-03-11T23:51:55.605Z,22.18
2023-03-11T23:54:22.273Z,22.18
2023-03-11T23:56:48.986Z,22.19
2023-03-11T23:59:15.592Z,22.21
